Time;durP1;ratioP1;P1;durP2;ratioP2;P2;SDS_P1;SDS_P2;PMS_P1;PMS_P2;Temp;Humidity;BMP_temperature;BMP_pressure;BME280_temperature;BME280_humidity;BME280_pressure;Samples;Min_cycle;Max_cycle;Signal;HPM_P1;HPM_P2
2023/11/04 00:00:51;;;;;;;0.00;0.00;;;;;;;9.52;69.82;98550.19;15711112;28;20037;-50
2023/11/04 00:08:27;;;;;;;0.00;0.00;;;;;;;9.20;70.09;98542.19;15715066;28;20436;-55
2023/11/04 00:16:03;;;;;;;0.55;0.40;;;;;;;9.54;69.38;98548.06;15705969;28;20123;-52
2023/11/04 00:23:37;;;;;;;0.00;0.00;;;;;;;8.42;72.85;98558.50;15709974;28;20151;-52
2023/11/04 00:31:11;;;;;;;0.65;0.47;;;;;;;9.06;70.29;98560.53;15695179;28;20036;-51
2023/11/04 00:38:46;;;;;;;0.00;0.00;;;;;;;9.09;70.39;98557.34;15685424;28;20044;-50
2023/11/04 00:46:20;;;;;;;0.00;0.00;;;;;;;9.08;69.95;98568.28;15720094;28;20109;-51
2023/11/04 00:53:55;;;;;;;0.00;0.00;;;;;;;8.90;71.10;98575.59;15698692;28;20123;-53
2023/11/04 01:01:29;;;;;;;0.22;0.20;;;;;;;8.81;70.50;98582.50;15699904;28;20044;-51
2023/11/04 01:09:08;;;;;;;0.00;0.00;;;;;;;8.39;71.51;98593.78;15699220;28;20551;-48
2023/11/04 01:16:41;;;;;;;0.00;0.00;;;;;;;8.16;71.97;98594.00;15689930;28;20090;-54
2023/11/04 01:24:16;;;;;;;0.10;0.10;;;;;;;8.48;70.92;98596.81;15707114;28;20460;-52
2023/11/04 01:31:50;;;;;;;0.00;0.00;;;;;;;8.36;71.01;98594.28;15685229;28;20039;-53
2023/11/04 01:39:24;;;;;;;0.13;0.13;;;;;;;8.29;70.67;98592.78;15685398;28;20064;-51
2023/11/04 01:47:00;;;;;;;1.40;0.32;;;;;;;8.28;70.79;98599.19;15695901;28;20089;-50
2023/11/04 01:54:35;;;;;;;0.00;0.00;;;;;;;8.38;69.12;98591.34;15722566;28;20044;-53
2023/11/04 02:02:12;;;;;;;0.00;0.00;;;;;;;8.39;68.88;98614.34;15692869;28;20098;-53
2023/11/04 02:09:46;;;;;;;0.30;0.30;;;;;;;7.99;70.09;98610.03;15713613;28;20045;-51
2023/11/04 02:17:23;;;;;;;0.00;0.00;;;;;;;7.78;69.98;98614.25;15710232;28;20304;-53
2023/11/04 02:24:59;;;;;;;0.00;0.00;;;;;;;8.42;68.12;98617.31;15730966;28;20109;-56
2023/11/04 02:32:32;;;;;;;0.00;0.00;;;;;;;7.83;70.31;98621.53;15699075;28;20451;-52
2023/11/04 02:40:09;;;;;;;0.00;0.00;;;;;;;7.79;69.67;98633.78;15675880;28;20421;-55
2023/11/04 02:47:43;;;;;;;0.00;0.00;;;;;;;7.86;69.67;98631.75;15694653;28;20037;-50
2023/11/04 02:55:17;;;;;;;0.00;0.00;;;;;;;7.80;69.63;98646.09;15702922;28;20029;-53
2023/11/04 03:02:50;;;;;;;0.00;0.00;;;;;;;7.55;70.34;98647.28;15704103;28;20068;-52
2023/11/04 03:10:26;;;;;;;0.05;0.05;;;;;;;7.67;70.05;98652.56;15730553;28;20409;-50
2023/11/04 03:17:59;;;;;;;0.13;0.13;;;;;;;7.61;70.01;98658.88;15689611;28;20079;-51
2023/11/04 03:25:35;;;;;;;0.00;0.00;;;;;;;7.60;69.71;98650.06;15715364;28;20489;-52
2023/11/04 03:33:09;;;;;;;0.73;0.52;;;;;;;7.82;68.95;98657.31;15712587;28;20037;-56
2023/11/04 03:40:44;;;;;;;0.32;0.32;;;;;;;7.45;69.91;98662.31;15707092;28;20468;-55
2023/11/04 03:48:19;;;;;;;0.00;0.00;;;;;;;7.30;70.62;98660.19;15717655;28;20368;-54
2023/11/04 03:55:53;;;;;;;0.00;0.00;;;;;;;7.61;69.79;98661.53;15711499;28;20087;-52
2023/11/04 04:03:27;;;;;;;0.00;0.00;;;;;;;7.27;70.30;98660.66;15711837;28;20037;-56
2023/11/04 04:11:02;;;;;;;0.00;0.00;;;;;;;7.08;70.99;98660.88;15707314;28;20478;-54
2023/11/04 04:18:36;;;;;;;0.00;0.00;;;;;;;7.02;71.96;98658.34;15702571;28;20131;-52
2023/11/04 04:26:10;;;;;;;;;;;;;;;7.13;71.41;98668.16;15728130;28;20098;-55
2023/11/04 04:33:45;;;;;;;0.00;0.00;;;;;;;7.05;71.61;98660.56;15710581;28;19920;-55
2023/11/04 04:41:19;;;;;;;0.10;0.10;;;;;;;6.91;72.17;98652.03;15705264;28;20550;-54
2023/11/04 04:48:53;;;;;;;0.00;0.00;;;;;;;7.20;71.30;98649.34;15714553;28;20123;-54
2023/11/04 04:56:28;;;;;;;0.00;0.00;;;;;;;7.03;71.48;98658.09;15723956;28;20080;-54
2023/11/04 05:04:02;;;;;;;0.00;0.00;;;;;;;6.97;71.74;98650.25;15716475;28;20544;-54
2023/11/04 05:11:36;;;;;;;0.00;0.00;;;;;;;7.23;70.80;98649.69;15708431;28;20094;-54
2023/11/04 05:19:10;;;;;;;0.00;0.00;;;;;;;7.26;70.90;98651.06;15690535;28;20044;-52
2023/11/04 05:26:45;;;;;;;0.00;0.00;;;;;;;7.04;70.89;98648.25;15710545;28;20453;-52
2023/11/04 05:34:18;;;;;;;0.08;0.08;;;;;;;6.45;73.86;98658.28;15722565;28;20494;-54
2023/11/04 05:41:53;;;;;;;;;;;;;;;6.87;72.55;98653.53;15702096;28;20045;-55
2023/11/04 05:49:27;;;;;;;0.82;0.82;;;;;;;6.74;72.72;98661.81;15722312;28;19920;-54
2023/11/04 05:57:02;;;;;;;0.00;0.00;;;;;;;6.52;72.99;98650.97;15706224;28;20544;-52
2023/11/04 06:04:35;;;;;;;0.00;0.00;;;;;;;6.80;71.99;98651.00;15722360;28;20036;-51
2023/11/04 06:12:14;;;;;;;0.00;0.00;;;;;;;6.05;74.73;98661.66;15714130;28;20113;-52
2023/11/04 06:19:49;;;;;;;0.00;0.00;;;;;;;6.08;75.03;98656.69;15715996;28;20125;-50
2023/11/04 06:27:24;;;;;;;0.00;0.00;;;;;;;6.78;73.21;98657.63;15706147;28;20123;-51
2023/11/04 06:34:58;;;;;;;0.73;0.73;;;;;;;6.85;72.14;98650.28;15712211;28;20064;-52
2023/11/04 06:42:32;;;;;;;0.00;0.00;;;;;;;6.96;72.54;98640.66;15712203;28;20132;-52
2023/11/04 06:50:07;;;;;;;0.32;0.32;;;;;;;6.94;72.19;98640.84;15721013;28;20041;-53
2023/11/04 06:57:42;;;;;;;0.00;0.00;;;;;;;6.87;73.26;98638.34;15715879;28;20500;-55
2023/11/04 07:05:15;;;;;;;0.00;0.00;;;;;;;7.04;71.91;98614.41;15684332;22;20095;-57
2023/11/04 07:12:51;;;;;;;0.00;0.00;;;;;;;7.16;72.28;98643.66;15710442;28;20045;-57
2023/11/04 07:20:25;;;;;;;0.00;0.00;;;;;;;7.12;72.38;98639.88;15695893;28;20512;-59
2023/11/04 07:27:59;;;;;;;0.00;0.00;;;;;;;6.98;73.41;98641.19;15697557;28;20513;-59
2023/11/04 07:35:33;;;;;;;0.00;0.00;;;;;;;7.21;72.34;98640.28;15704039;28;20044;-56
2023/11/04 07:43:13;;;;;;;0.00;0.00;;;;;;;7.25;72.10;98623.56;15700724;28;20064;-58
2023/11/04 07:50:47;;;;;;;0.00;0.00;;;;;;;8.06;69.62;98612.53;15688370;28;20036;-54
2023/11/04 07:58:21;;;;;;;0.00;0.00;;;;;;;9.11;66.45;98614.09;15695758;28;20072;-53
2023/11/04 08:05:54;;;;;;;0.00;0.00;;;;;;;9.36;65.45;98597.44;15685187;28;20067;-58
2023/11/04 08:13:29;;;;;;;0.00;0.00;;;;;;;10.28;62.58;98583.91;15702028;28;20458;-60
2023/11/04 08:21:05;;;;;;;0.00;0.00;;;;;;;10.31;61.78;98591.44;15701250;28;20072;-53
2023/11/04 08:28:40;;;;;;;0.00;0.00;;;;;;;9.75;62.31;98593.75;15685855;28;20138;-55
2023/11/04 08:36:13;;;;;;;0.52;0.52;;;;;;;10.79;59.16;98584.09;15702686;28;20072;-61
2023/11/04 08:43:47;;;;;;;0.00;0.00;;;;;;;11.56;57.88;98579.59;15675836;28;20076;-62
2023/11/04 08:51:21;;;;;;;0.00;0.00;;;;;;;11.48;56.82;98568.34;15705423;28;20064;-58
2023/11/04 08:58:55;;;;;;;2.65;0.47;;;;;;;12.24;55.74;98564.72;15685810;28;20094;-58
2023/11/04 09:06:29;;;;;;;1.27;0.73;;;;;;;12.49;53.34;98563.00;15656252;28;20048;-56
2023/11/04 09:14:05;;;;;;;0.00;0.00;;;;;;;12.52;53.29;98571.34;15701381;28;20257;-50
2023/11/04 09:21:38;;;;;;;0.00;0.00;;;;;;;13.07;51.33;98571.31;15676745;28;20109;-55
2023/11/04 09:29:12;;;;;;;;;;;;;;;13.37;50.43;98574.91;15682590;28;20399;-53
2023/11/04 09:36:46;;;;;;;0.20;0.17;;;;;;;13.75;49.95;98560.53;15684104;28;19920;-55
2023/11/04 09:44:20;;;;;;;0.08;0.08;;;;;;;13.15;51.10;98549.19;15696661;28;20032;-59
2023/11/04 09:51:55;;;;;;;0.35;0.20;;;;;;;13.26;49.98;98553.44;15667931;28;20053;-59
2023/11/04 09:59:32;;;;;;;1.00;0.75;;;;;;;14.41;47.58;98542.00;15694736;28;20567;-56
2023/11/04 10:07:07;;;;;;;0.30;0.30;;;;;;;14.17;46.84;98539.34;15698745;28;20053;-62
2023/11/04 10:14:42;;;;;;;0.00;0.00;;;;;;;13.86;48.41;98528.91;15699983;28;20048;-56
2023/11/04 10:22:16;;;;;;;0.15;0.15;;;;;;;13.58;49.54;98529.72;15675793;28;20498;-59
2023/11/04 10:29:53;;;;;;;0.00;0.00;;;;;;;13.89;47.45;98522.13;15662181;28;20118;-55
2023/11/04 10:37:28;;;;;;;0.00;0.00;;;;;;;13.81;48.31;98501.19;15680659;28;20490;-53
2023/11/04 10:45:11;;;;;;;0.00;0.00;;;;;;;14.65;46.74;98490.72;15694785;28;20427;-57
2023/11/04 10:52:56;;;;;;;0.00;0.00;;;;;;;13.46;48.87;98503.13;15670465;28;20452;-53
2023/11/04 11:00:34;;;;;;;0.20;0.20;;;;;;;13.99;47.42;98487.75;15676951;28;20052;-59
2023/11/04 11:08:08;;;;;;;0.00;0.00;;;;;;;13.81;48.18;98476.94;15663030;28;20086;-52
2023/11/04 11:15:43;;;;;;;9.43;1.20;;;;;;;14.91;45.90;98466.81;15683850;28;20082;-59
2023/11/04 11:23:26;;;;;;;0.05;0.05;;;;;;;14.11;46.33;98468.47;15667698;28;20128;-62
2023/11/04 11:31:02;;;;;;;0.00;0.00;;;;;;;15.52;44.39;98468.50;15653292;28;20070;-52
2023/11/04 11:38:37;;;;;;;0.00;0.00;;;;;;;14.17;46.12;98442.22;15662908;28;20051;-52
2023/11/04 11:46:12;;;;;;;0.38;0.38;;;;;;;14.30;45.93;98438.81;15679581;28;20078;-61
2023/11/04 11:53:46;;;;;;;0.08;0.08;;;;;;;14.20;45.73;98430.84;15657023;28;20051;-52
2023/11/04 12:01:21;;;;;;;0.30;0.10;;;;;;;15.43;43.82;98437.84;15669487;28;20130;-57
2023/11/04 12:08:55;;;;;;;0.03;0.00;;;;;;;14.58;43.94;98430.88;15678029;28;20071;-54
2023/11/04 12:16:31;;;;;;;0.00;0.00;;;;;;;15.57;42.92;98419.72;15675285;28;20041;-53
2023/11/04 12:24:05;;;;;;;0.15;0.05;;;;;;;14.67;45.87;98413.72;15681784;28;20032;-56
2023/11/04 12:31:42;;;;;;;0.08;0.08;;;;;;;13.45;46.77;98410.72;15683288;28;20498;-54
2023/11/04 12:39:16;;;;;;;0.00;0.00;;;;;;;12.92;48.46;98415.25;15673610;28;20413;-61
2023/11/04 12:46:51;;;;;;;0.00;0.00;;;;;;;12.15;50.27;98405.00;15694952;28;20430;-53
2023/11/04 12:54:24;;;;;;;0.00;0.00;;;;;;;12.41;50.14;98388.72;15671581;28;20040;-56
2023/11/04 13:01:59;;;;;;;0.00;0.00;;;;;;;11.86;51.50;98391.44;15660918;28;20044;-53
2023/11/04 13:09:32;;;;;;;0.05;0.05;;;;;;;12.11;50.67;98400.47;15640368;28;20412;-56
2023/11/04 13:17:06;;;;;;;0.00;0.00;;;;;;;12.11;51.05;98393.19;15645697;28;20048;-59
2023/11/04 13:24:45;;;;;;;0.10;0.10;;;;;;;11.60;51.24;98385.34;15662777;28;20132;-54
2023/11/04 13:32:30;;;;;;;0.00;0.00;;;;;;;11.84;51.34;98380.16;15664270;28;20037;-56
2023/11/04 13:40:13;;;;;;;0.63;0.32;;;;;;;11.60;50.68;98385.34;15650950;28;20041;-58
2023/11/04 13:48:02;;;;;;;0.00;0.00;;;;;;;11.58;50.85;98362.53;15678455;28;20052;-55
2023/11/04 13:55:44;;;;;;;0.10;0.10;;;;;;;11.50;50.68;98353.13;15687170;28;20236;-54
2023/11/04 14:03:19;;;;;;;0.00;0.00;;;;;;;11.50;50.49;98342.41;15711591;28;20738;-53
2023/11/04 14:10:53;;;;;;;0.10;0.10;;;;;;;11.41;51.20;98338.66;15710205;28;20098;-55
2023/11/04 14:18:37;;;;;;;0.00;0.00;;;;;;;11.39;50.82;98325.53;15690890;28;20036;-52
2023/11/04 14:26:11;;;;;;;0.00;0.00;;;;;;;11.54;50.80;98323.84;15683523;28;20060;-55
2023/11/04 14:33:45;;;;;;;0.00;0.00;;;;;;;11.37;51.25;98306.19;15683267;28;20434;-55
2023/11/04 14:41:18;;;;;;;0.00;0.00;;;;;;;11.21;52.05;98294.69;15705989;28;20041;-53
2023/11/04 14:48:53;;;;;;;0.00;0.00;;;;;;;11.41;52.05;98284.94;15703903;28;20064;-58
2023/11/04 14:56:26;;;;;;;0.00;0.00;;;;;;;11.24;52.48;98285.31;15699018;28;20044;-59
2023/11/04 15:04:02;;;;;;;0.00;0.00;;;;;;;11.02;53.30;98266.06;15684050;28;20120;-55
2023/11/04 15:11:39;;;;;;;0.00;0.00;;;;;;;10.87;53.99;98242.75;15703823;28;20124;-58
2023/11/04 15:19:13;;;;;;;0.00;0.00;;;;;;;10.48;55.37;98232.63;15700517;28;20482;-51
2023/11/04 15:26:46;;;;;;;0.28;0.28;;;;;;;10.76;55.38;98227.75;15701205;28;20036;-54
2023/11/04 15:34:21;;;;;;;0.22;0.15;;;;;;;10.44;56.83;98218.16;15703478;28;20052;-55
2023/11/04 15:41:55;;;;;;;1.67;1.45;;;;;;;10.24;57.98;98213.63;15699559;28;20394;-58
2023/11/04 15:49:29;;;;;;;0.75;0.65;;;;;;;10.03;59.70;98201.31;15703151;28;20128;-54
2023/11/04 15:57:04;;;;;;;0.00;0.00;;;;;;;9.99;60.27;98182.28;15697032;28;20131;-55
2023/11/04 16:04:38;;;;;;;;;;;;;;;9.91;60.16;98178.25;15704586;28;20516;-59
2023/11/04 16:12:11;;;;;;;0.00;0.00;;;;;;;9.75;60.93;98171.28;15680676;28;20018;-58
2023/11/04 16:19:46;;;;;;;0.00;0.00;;;;;;;9.65;61.42;98161.38;15729357;28;20051;-55
2023/11/04 16:27:21;;;;;;;0.00;0.00;;;;;;;9.57;61.66;98140.47;15735238;28;20062;-53
2023/11/04 16:34:57;;;;;;;0.00;0.00;;;;;;;9.33;62.97;98134.84;15726421;28;20512;-55
2023/11/04 16:42:30;;;;;;;0.00;0.00;;;;;;;8.87;64.49;98108.00;15734518;28;20037;-55
2023/11/04 16:50:06;;;;;;;2.92;0.75;;;;;;;9.00;64.04;98105.88;15733448;28;20124;-51
2023/11/04 16:57:43;;;;;;;0.38;0.30;;;;;;;8.61;65.10;98085.72;15732278;28;20063;-53
2023/11/04 17:05:18;;;;;;;2.05;0.28;;;;;;;8.54;65.63;98077.16;15732719;28;20197;-56
2023/11/04 17:12:51;;;;;;;0.03;0.03;;;;;;;8.53;65.43;98078.19;15724881;28;20420;-53
2023/11/04 17:20:25;;;;;;;0.20;0.10;;;;;;;8.51;65.37;98074.19;15722785;28;20047;-54
2023/11/04 17:27:58;;;;;;;0.10;0.10;;;;;;;8.78;64.19;98092.72;15721708;28;20105;-56
2023/11/04 17:35:33;;;;;;;0.00;0.00;;;;;;;8.95;63.74;98079.91;15732042;28;20394;-57
2023/11/04 17:43:06;;;;;;;0.00;0.00;;;;;;;8.88;63.42;98033.91;15731598;28;20032;-52
2023/11/04 17:50:42;;;;;;;0.00;0.00;;;;;;;9.08;63.16;98027.75;15696935;28;20044;-53
2023/11/04 17:58:15;;;;;;;0.00;0.00;;;;;;;9.01;63.37;98022.69;15730896;28;20044;-52
2023/11/04 18:05:51;;;;;;;0.10;0.10;;;;;;;8.97;63.89;97997.53;15731458;28;20087;-54
2023/11/04 18:13:24;;;;;;;0.00;0.00;;;;;;;9.24;63.11;97997.25;15730194;28;20082;-55
2023/11/04 18:20:59;;;;;;;0.00;0.00;;;;;;;9.09;64.05;97979.34;15727940;28;20060;-51
2023/11/04 18:28:32;;;;;;;0.00;0.00;;;;;;;9.08;64.39;97967.00;15730978;28;20044;-51
2023/11/04 18:36:08;;;;;;;0.00;0.00;;;;;;;9.29;63.39;97948.28;15736796;28;20396;-54
2023/11/04 18:43:41;;;;;;;0.00;0.00;;;;;;;9.53;62.59;97927.06;15741188;28;20063;-56
2023/11/04 18:51:17;;;;;;;0.20;0.20;;;;;;;9.64;61.92;97936.66;15740548;28;20040;-52
2023/11/04 18:58:50;;;;;;;0.10;0.10;;;;;;;9.71;61.48;97910.41;15713599;28;20044;-56
2023/11/04 19:06:25;;;;;;;0.00;0.00;;;;;;;9.78;61.31;97915.47;15739541;28;20116;-51
2023/11/04 19:13:58;;;;;;;0.00;0.00;;;;;;;9.94;60.75;97899.06;15714948;28;20659;-49
2023/11/04 19:21:39;;;;;;;0.00;0.00;;;;;;;10.02;60.66;97892.28;15713541;28;20127;-55
2023/11/04 19:29:12;;;;;;;0.00;0.00;;;;;;;9.92;60.40;97901.19;15724974;28;20124;-48
2023/11/04 19:36:48;;;;;;;0.00;0.00;;;;;;;10.01;59.57;97909.47;15690866;28;20047;-51
2023/11/04 19:44:21;;;;;;;0.00;0.00;;;;;;;9.86;59.99;97883.53;15706654;28;20127;-48
2023/11/04 19:51:55;;;;;;;;;;;;;;;9.79;60.39;97861.63;15725618;28;20079;-53
2023/11/04 19:59:30;;;;;;;0.00;0.00;;;;;;;9.80;60.54;97873.16;15709106;28;19932;-49
2023/11/04 20:07:05;;;;;;;0.63;0.38;;;;;;;9.87;60.53;97860.22;15675812;28;20041;-52
2023/11/04 20:14:41;;;;;;;0.00;0.00;;;;;;;10.03;60.04;97855.59;15698439;28;20160;-51
2023/11/04 20:22:16;;;;;;;0.05;0.05;;;;;;;9.85;60.39;97852.47;15631442;28;20053;-49
2023/11/04 20:29:50;;;;;;;0.00;0.00;;;;;;;10.03;60.08;97845.69;15687077;28;20071;-48
2023/11/04 20:37:26;;;;;;;0.08;0.08;;;;;;;9.77;62.34;97817.44;15685059;28;20344;-51
2023/11/04 20:45:00;;;;;;;0.00;0.00;;;;;;;9.58;64.35;97806.56;15678052;28;20494;-50
2023/11/04 20:52:35;;;;;;;0.00;0.00;;;;;;;9.48;64.38;97814.63;15644522;28;20045;-45
2023/11/04 21:00:09;;;;;;;0.70;0.22;;;;;;;9.45;65.16;97813.28;15645892;28;20132;-55
2023/11/04 21:07:46;;;;;;;0.00;0.00;;;;;;;8.96;68.72;97802.53;15682321;28;20157;-51
2023/11/04 21:15:22;;;;;;;0.00;0.00;;;;;;;8.99;67.50;97794.72;15684159;28;20524;-48
2023/11/04 21:23:00;;;;;;;0.10;0.10;;;;;;;9.01;67.97;97789.91;15681100;28;20128;-51
2023/11/04 21:30:33;;;;;;;0.00;0.00;;;;;;;9.17;66.99;97767.38;15701104;28;20071;-53
2023/11/04 21:38:08;;;;;;;0.00;0.00;;;;;;;9.22;66.21;97749.69;15680230;28;20045;-51
2023/11/04 21:45:44;;;;;;;0.00;0.00;;;;;;;9.29;65.25;97734.94;15656716;28;20067;-52
2023/11/04 21:53:18;;;;;;;0.10;0.10;;;;;;;9.40;64.56;97725.78;15681281;28;20524;-52
2023/11/04 22:00:52;;;;;;;0.00;0.00;;;;;;;9.71;63.51;97725.59;15655206;28;20557;-53
2023/11/04 22:08:27;;;;;;;0.00;0.00;;;;;;;9.54;64.02;97703.75;15688953;28;20098;-45
2023/11/04 22:16:00;;;;;;;0.00;0.00;;;;;;;9.45;64.83;97698.97;15683984;28;20041;-53
2023/11/04 22:23:36;;;;;;;0.00;0.00;;;;;;;9.40;64.68;97685.63;15643820;28;20474;-48
2023/11/04 22:31:12;;;;;;;0.00;0.00;;;;;;;9.41;64.77;97689.09;15672300;28;20466;-46
2023/11/04 22:38:46;;;;;;;0.20;0.20;;;;;;;9.65;64.09;97670.47;15667437;28;20129;-51
2023/11/04 22:46:20;;;;;;;0.00;0.00;;;;;;;9.49;64.77;97666.31;15653534;28;20038;-45
2023/11/04 22:53:55;;;;;;;0.10;0.10;;;;;;;9.47;65.07;97671.16;15670884;28;20246;-49
2023/11/04 23:01:30;;;;;;;0.00;0.00;;;;;;;9.48;64.77;97662.84;15688357;28;20371;-50
2023/11/04 23:09:06;;;;;;;0.30;0.30;;;;;;;9.89;63.60;97657.16;15675575;28;20105;-46
2023/11/04 23:16:40;;;;;;;0.00;0.00;;;;;;;9.67;64.24;97650.38;15679037;28;20037;-48
2023/11/04 23:24:14;;;;;;;0.55;0.17;;;;;;;9.32;65.60;97655.97;15666908;28;20036;-51
2023/11/04 23:31:47;;;;;;;0.00;0.00;;;;;;;9.52;65.15;97642.47;15662198;28;20088;-54
2023/11/04 23:39:22;;;;;;;0.00;0.00;;;;;;;9.43;65.45;97636.09;15651824;28;20098;-53
2023/11/04 23:46:56;;;;;;;0.00;0.00;;;;;;;9.60;64.88;97627.66;15634313;28;20446;-53
2023/11/04 23:54:32;;;;;;;0.00;0.00;;;;;;;9.82;64.52;97616.50;15666245;28;20472;-47
